Pagrindinis puslapis
METAR-TAF:

METAR-TAF

Oro uostai :

Oro pajėgų bazė

Hachinohe, Japonija

platuma: 40-33N, ilguma: 141-28E, Aukštis: 46 m

Dabartinis oras

Ataskaita buvo paskelbta 23 valandos ir 50 minutes, ne 05:07 UTC
Vėjas 15 kt iš Vakarų su gūsio iki 27 kt
Temperatūra 4°C
Drėgmė 52%
Slėgis 1021 hPa
Matomumas 10 km arba daugiau
Mažai debesys ne aukštis 2000 ft
Išsisklaidę debesys ne aukštis 4500 ft
sniegas

METAR: RJSH 190507Z 28015G27KT 9999 -SHSN FEW020 SCT045 04/M05 Q1021 RMK 1CU020 4CU045 A3017

Laikas: 13:57 (04:57 UTC)


TAF: trūkstamas

Orai ataskaitas ir orų prognozės (METAR, TAF).

turimą stotys yra geltonos ir raudonos taškus žemėlapyje.

Perkelti pele per norėdami pamatyti stoties vardą.

Tada spustelėkite, norėdami matyti oro stebėjimo ir prognozės.

Norėdami pakeisti žemėlapį: spustelėkite ant žalios mygtukų su juodo kryžiaus žemyn,; žalią mygtuką su brūkšneliu, jei norite nutolinti; arba žalių rodyklių gretimoms žemėlapius.


METAR-TAF: